Time;durP1;ratioP1;P1;durP2;ratioP2;P2;SDS_P1;SDS_P2;PMS_P1;PMS_P2;Temp;Humidity;BMP_temperature;BMP_pressure;BME280_temperature;BME280_humidity;BME280_pressure;Samples;Min_cycle;Max_cycle;Signal;HPM_P1;HPM_P2
2023/05/25 00:00:28;;;;;;;10.80;5.57;;;11.80;99.90;;;;;;2104285;28;20032;-71
2023/05/25 00:01:29;;;;;;;9.27;5.55;;;11.80;99.90;;;;;;2103669;28;20028;-71
2023/05/25 00:02:32;;;;;;;11.82;5.93;;;11.80;99.90;;;;;;2105225;28;20039;-71
2023/05/25 00:03:32;;;;;;;12.63;6.45;;;11.80;99.90;;;;;;2105317;28;20468;-71
2023/05/25 00:04:33;;;;;;;12.40;6.32;;;11.80;99.90;;;;;;2103412;28;20383;-71
2023/05/25 00:05:34;;;;;;;13.60;6.45;;;11.80;99.90;;;;;;2105215;28;20112;-71
2023/05/25 00:06:40;;;;;;;10.38;5.72;;;11.80;99.90;;;;;;2105640;28;20055;-71
2023/05/25 00:07:40;;;;;;;9.65;5.25;;;11.80;99.90;;;;;;2104570;28;20024;-71
2023/05/25 00:08:41;;;;;;;10.10;6.25;;;11.80;99.90;;;;;;2103394;28;20036;-71
2023/05/25 00:09:43;;;;;;;11.85;5.65;;;11.70;99.90;;;;;;2106203;28;20026;-71
2023/05/25 00:10:43;;;;;;;11.52;5.63;;;11.70;99.90;;;;;;2108693;28;20032;-71
2023/05/25 00:11:44;;;;;;;11.50;6.07;;;11.70;99.90;;;;;;2104736;28;20661;-71
2023/05/25 00:12:44;;;;;;;12.70;6.20;;;11.70;99.90;;;;;;2105694;28;20387;-71
2023/05/25 00:13:45;;;;;;;11.93;5.38;;;11.70;99.90;;;;;;2103895;28;20029;-71
2023/05/25 00:14:46;;;;;;;13.68;6.03;;;11.70;99.90;;;;;;2104513;28;20024;-71
2023/05/25 00:15:46;;;;;;;9.07;4.72;;;11.60;99.90;;;;;;2108185;28;20016;-71
2023/05/25 00:16:47;;;;;;;10.50;5.88;;;11.60;99.90;;;;;;2104386;28;20033;-71
2023/05/25 00:17:48;;;;;;;8.05;5.30;;;11.60;99.90;;;;;;2105015;28;20024;-71
2023/05/25 00:18:48;;;;;;;9.38;5.30;;;11.60;99.90;;;;;;2107026;28;20063;-71
2023/05/25 00:19:49;;;;;;;11.98;6.13;;;11.60;99.90;;;;;;2104120;28;20024;-71
2023/05/25 00:20:53;;;;;;;13.15;5.82;;;11.60;99.90;;;;;;2104475;28;20130;-71
2023/05/25 00:21:54;;;;;;;11.10;6.13;;;11.60;99.90;;;;;;2103433;28;20032;-71
2023/05/25 00:22:55;;;;;;;10.18;5.60;;;11.50;99.90;;;;;;2105029;28;20017;-71
2023/05/25 00:23:55;;;;;;;8.25;5.50;;;11.50;99.90;;;;;;2104366;28;20024;-71
2023/05/25 00:24:56;;;;;;;8.35;4.63;;;11.50;99.90;;;;;;2104617;28;20032;-71
2023/05/25 00:25:56;;;;;;;10.10;5.28;;;11.50;99.90;;;;;;2104772;28;20430;-71
2023/05/25 00:26:57;;;;;;;9.13;5.15;;;11.50;99.90;;;;;;2105624;28;20092;-71
2023/05/25 00:27:57;;;;;;;13.13;5.50;;;11.50;99.90;;;;;;2103927;28;20032;-71
2023/05/25 00:29:01;;;;;;;11.70;6.63;;;11.50;99.90;;;;;;2103706;28;20031;-71
2023/05/25 00:30:02;;;;;;;8.88;5.43;;;11.40;99.90;;;;;;2102240;28;20042;-71
2023/05/25 00:31:02;;;;;;;15.50;6.47;;;11.40;99.90;;;;;;2104687;28;20039;-71
2023/05/25 00:32:04;;;;;;;10.60;5.53;;;11.40;99.90;;;;;;2103793;28;20032;-71
2023/05/25 00:33:04;;;;;;;9.25;6.03;;;11.40;99.90;;;;;;2104443;28;20665;-71
2023/05/25 00:34:05;;;;;;;10.57;5.50;;;11.40;99.90;;;;;;2105896;28;20016;-71
2023/05/25 00:35:06;;;;;;;10.25;5.72;;;11.40;99.90;;;;;;2104609;28;20055;-71
2023/05/25 00:36:07;;;;;;;10.98;5.78;;;11.40;99.90;;;;;;2101929;28;20024;-71
2023/05/25 00:37:08;;;;;;;13.45;6.30;;;11.30;99.90;;;;;;2104670;28;20016;-71
2023/05/25 00:38:16;;;;;;;11.65;6.63;;;11.30;99.90;;;;;;2105726;28;20020;-71
2023/05/25 00:39:20;;;;;;;13.57;6.28;;;11.30;99.90;;;;;;2102992;28;20028;-71
2023/05/25 00:40:21;;;;;;;9.52;4.90;;;11.30;99.90;;;;;;2105112;28;20016;-71
2023/05/25 00:41:22;;;;;;;13.95;5.95;;;11.30;99.90;;;;;;2106689;28;20066;-71
2023/05/25 00:42:23;;;;;;;13.57;6.38;;;11.30;99.90;;;;;;2105472;28;20020;-71
2023/05/25 00:43:23;;;;;;;11.25;6.07;;;11.20;99.90;;;;;;2102345;28;20048;-71
2023/05/25 00:44:24;;;;;;;9.05;5.57;;;11.20;99.90;;;;;;2104207;28;20024;-71
2023/05/25 00:45:24;;;;;;;12.95;5.75;;;11.20;99.90;;;;;;2103365;28;20039;-71
2023/05/25 00:46:26;;;;;;;7.90;5.40;;;11.20;99.90;;;;;;2102920;28;20065;-71
2023/05/25 00:47:26;;;;;;;10.75;5.75;;;11.20;99.90;;;;;;2104405;28;20027;-71
2023/05/25 00:48:27;;;;;;;9.40;5.97;;;11.20;99.90;;;;;;2103757;28;20035;-71
2023/05/25 00:49:30;;;;;;;11.27;6.07;;;11.20;99.90;;;;;;2104608;28;20086;-71
2023/05/25 00:50:41;;;;;;;14.13;6.93;;;11.20;99.90;;;;;;2104365;28;20032;-71
2023/05/25 00:51:45;;;;;;;13.32;6.40;;;11.20;99.90;;;;;;2105615;28;20074;-71
2023/05/25 00:52:46;;;;;;;9.10;5.72;;;11.10;99.90;;;;;;2103848;28;20042;-71
2023/05/25 00:53:46;;;;;;;12.80;6.35;;;11.10;99.90;;;;;;2103011;28;20019;-71
2023/05/25 00:54:52;;;;;;;9.18;5.40;;;11.10;99.90;;;;;;2103821;28;20025;-71
2023/05/25 00:56:04;;;;;;;10.48;6.15;;;11.10;99.90;;;;;;2103083;28;20034;-71
2023/05/25 00:57:06;;;;;;;14.77;6.15;;;11.10;99.90;;;;;;2102570;28;20039;-71
2023/05/25 00:58:08;;;;;;;11.45;6.18;;;11.10;99.90;;;;;;2106041;28;20023;-71
2023/05/25 00:59:14;;;;;;;9.18;5.75;;;11.10;99.90;;;;;;2105728;28;20024;-71
2023/05/25 01:00:15;;;;;;;8.85;5.45;;;11.00;99.90;;;;;;2102540;28;20028;-71
2023/05/25 01:01:18;;;;;;;8.73;5.30;;;11.00;99.90;;;;;;2104893;28;20024;-71
2023/05/25 01:02:19;;;;;;;11.80;6.40;;;11.00;99.90;;;;;;2100954;28;20028;-71
2023/05/25 01:03:26;;;;;;;9.52;5.28;;;11.00;99.90;;;;;;2107036;28;20450;-71
2023/05/25 01:04:28;;;;;;;11.57;6.00;;;11.00;99.90;;;;;;2103135;28;20024;-71
2023/05/25 01:05:31;;;;;;;8.60;5.60;;;11.00;99.90;;;;;;2102514;28;20107;-71
2023/05/25 01:06:33;;;;;;;12.23;6.93;;;11.00;99.90;;;;;;2104159;28;20028;-71
2023/05/25 01:07:35;;;;;;;9.73;6.38;;;11.00;99.90;;;;;;2092790;28;20372;-71
2023/05/25 01:08:39;;;;;;;13.00;6.10;;;10.90;99.90;;;;;;2103952;28;20077;-71
2023/05/25 01:09:43;;;;;;;12.45;6.20;;;10.90;99.90;;;;;;2110640;28;20471;-71
2023/05/25 01:10:47;;;;;;;9.65;6.22;;;10.90;99.90;;;;;;2104617;28;20032;-71
2023/05/25 01:11:50;;;;;;;12.23;7.00;;;10.90;99.90;;;;;;2107333;28;20383;-71
2023/05/25 01:12:54;;;;;;;10.82;6.10;;;10.90;99.90;;;;;;2103844;28;20519;-71
2023/05/25 01:13:56;;;;;;;10.88;5.78;;;10.90;99.90;;;;;;2103863;28;20026;-71
2023/05/25 01:14:58;;;;;;;8.48;5.57;;;10.90;99.90;;;;;;2104140;28;20066;-71
2023/05/25 01:15:59;;;;;;;10.95;5.90;;;10.90;99.90;;;;;;2102350;28;20067;-71
2023/05/25 01:17:02;;;;;;;10.88;6.32;;;10.80;99.90;;;;;;2105843;28;20027;-71
2023/05/25 01:18:02;;;;;;;10.95;5.60;;;10.90;99.90;;;;;;2103316;28;20040;-71
2023/05/25 01:19:03;;;;;;;10.55;6.82;;;10.80;99.90;;;;;;2104483;28;20029;-71
2023/05/25 01:20:08;;;;;;;9.90;6.18;;;10.80;99.90;;;;;;2103583;28;20459;-71
2023/05/25 01:21:19;;;;;;;11.40;6.03;;;10.80;99.90;;;;;;2104061;28;20533;-71
2023/05/25 01:22:31;;;;;;;9.57;6.07;;;10.80;99.90;;;;;;2105205;28;20031;-71
2023/05/25 01:23:35;;;;;;;7.88;6.05;;;10.80;99.90;;;;;;2104586;28;20051;-71
2023/05/25 01:24:43;;;;;;;10.07;5.90;;;10.70;99.90;;;;;;2102862;28;20024;-71
2023/05/25 01:25:49;;;;;;;11.35;6.50;;;10.70;99.90;;;;;;2102644;28;20487;-71
2023/05/25 01:27:37;;;;;;;7.95;5.45;;;10.70;99.90;;;;;;2105057;28;20059;-71
2023/05/25 01:28:41;;;;;;;9.07;5.53;;;10.70;99.90;;;;;;2104815;28;20055;-71
2023/05/25 01:29:44;;;;;;;9.88;6.10;;;10.70;99.90;;;;;;2103130;28;20492;-71
2023/05/25 01:30:47;;;;;;;11.27;6.00;;;10.70;99.90;;;;;;2103212;28;20016;-71
2023/05/25 01:31:49;;;;;;;11.35;6.80;;;10.70;99.90;;;;;;2104749;28;20026;-71
2023/05/25 01:32:51;;;;;;;9.65;6.07;;;10.60;99.90;;;;;;2104644;28;20413;-71
2023/05/25 01:33:53;;;;;;;12.07;7.15;;;10.60;99.90;;;;;;2105396;28;20070;-71
2023/05/25 01:34:56;;;;;;;14.93;7.20;;;10.60;99.90;;;;;;2103737;28;20028;-71
2023/05/25 01:35:58;;;;;;;12.90;6.28;;;10.60;99.90;;;;;;2102549;28;20024;-71
2023/05/25 01:36:59;;;;;;;10.43;6.13;;;10.60;99.90;;;;;;2104640;28;20028;-71
2023/05/25 01:38:00;;;;;;;9.40;6.20;;;10.60;99.90;;;;;;2106442;28;20495;-71
2023/05/25 01:39:01;;;;;;;10.15;6.32;;;10.60;99.90;;;;;;2104012;28;20432;-71
2023/05/25 01:40:02;;;;;;;9.23;6.28;;;10.60;99.90;;;;;;2105236;28;20024;-71
2023/05/25 01:41:02;;;;;;;11.57;6.82;;;10.60;99.90;;;;;;2104077;28;20131;-71
2023/05/25 01:42:03;;;;;;;9.80;6.43;;;10.60;99.90;;;;;;2105258;28;20041;-71
2023/05/25 01:43:03;;;;;;;14.40;7.00;;;10.60;99.90;;;;;;2104851;28;20566;-71
2023/05/25 01:44:06;;;;;;;13.18;6.65;;;10.60;99.90;;;;;;2105671;28;20055;-71
2023/05/25 01:45:08;;;;;;;12.85;6.80;;;10.50;99.90;;;;;;2103587;28;20028;-71
2023/05/25 01:46:38;;;;;;;11.98;6.57;;;10.50;99.90;;;;;;2103491;28;20810;-71
2023/05/25 01:47:52;;;;;;;10.20;6.90;;;10.50;99.90;;;;;;2101681;28;20036;-71
2023/05/25 01:49:11;;;;;;;11.20;6.35;;;10.50;99.90;;;;;;2105609;28;20110;-71
2023/05/25 01:50:52;;;;;;;11.80;6.57;;;10.40;99.90;;;;;;2102370;28;20031;-71
2023/05/25 01:52:22;;;;;;;10.73;6.78;;;10.40;99.90;;;;;;2104485;28;20028;-71
2023/05/25 01:53:28;;;;;;;9.85;5.32;;;10.40;99.90;;;;;;2106322;28;20539;-71
2023/05/25 01:54:37;;;;;;;11.27;6.53;;;10.30;99.90;;;;;;2107076;28;20042;-71
2023/05/25 01:55:53;;;;;;;9.10;6.30;;;10.30;99.90;;;;;;2103324;28;20031;-71
2023/05/25 01:57:00;;;;;;;11.77;6.03;;;10.30;99.90;;;;;;2105004;28;20500;-71
2023/05/25 01:58:01;;;;;;;13.15;6.38;;;10.30;99.90;;;;;;2102475;28;20016;-71
2023/05/25 01:59:05;;;;;;;10.85;6.07;;;10.30;99.90;;;;;;2102614;28;20776;-71
2023/05/25 02:00:08;;;;;;;9.57;5.35;;;10.30;99.90;;;;;;2093795;28;20031;-71
2023/05/25 02:01:09;;;;;;;10.05;6.55;;;10.30;99.90;;;;;;2103734;28;20016;-71
2023/05/25 02:02:13;;;;;;;11.05;6.20;;;10.30;99.90;;;;;;2102814;28;20028;-71
2023/05/25 02:03:14;;;;;;;11.40;5.72;;;10.30;99.90;;;;;;2104245;28;20492;-71
2023/05/25 02:04:17;;;;;;;10.02;5.93;;;10.30;99.90;;;;;;2101806;28;20403;-71
2023/05/25 02:05:19;;;;;;;10.70;6.28;;;10.30;99.90;;;;;;2101922;28;20035;-71
2023/05/25 02:06:20;;;;;;;11.07;6.97;;;10.30;99.90;;;;;;2090329;28;20074;-71
2023/05/25 02:07:22;;;;;;;10.07;6.40;;;10.30;99.90;;;;;;2098454;28;20056;-71
2023/05/25 02:08:22;;;;;;;13.07;6.50;;;10.30;99.90;;;;;;2104590;28;20028;-71
2023/05/25 02:09:23;;;;;;;11.65;6.30;;;10.30;99.90;;;;;;2104321;28;20099;-71
2023/05/25 02:10:23;;;;;;;9.90;6.18;;;10.30;99.90;;;;;;2102162;28;20112;-71
2023/05/25 02:11:24;;;;;;;6.13;5.15;;;10.20;99.90;;;;;;2104669;28;20024;-71
2023/05/25 02:12:25;;;;;;;12.48;5.47;;;10.20;99.90;;;;;;2103926;28;20062;-71
2023/05/25 02:13:25;;;;;;;8.18;5.32;;;10.20;99.90;;;;;;2104119;28;20024;-71
2023/05/25 02:14:26;;;;;;;11.70;6.50;;;10.20;99.90;;;;;;2101246;28;20103;-71
2023/05/25 02:15:32;;;;;;;9.35;6.20;;;10.20;99.90;;;;;;2103469;28;20107;-71
2023/05/25 02:16:32;;;;;;;9.48;6.32;;;10.20;99.90;;;;;;2102811;28;20862;-71
2023/05/25 02:17:35;;;;;;;11.52;6.28;;;10.20;99.90;;;;;;2101438;28;20092;-71
2023/05/25 02:18:36;;;;;;;8.68;6.55;;;10.20;99.90;;;;;;2100894;28;20064;-71
2023/05/25 02:19:37;;;;;;;9.02;6.20;;;10.20;99.90;;;;;;2102745;28;20016;-71
2023/05/25 02:20:37;;;;;;;8.88;5.55;;;10.20;99.90;;;;;;2099673;28;20451;-71
2023/05/25 02:21:38;;;;;;;11.48;6.65;;;10.10;99.90;;;;;;2103005;28;20058;-71
2023/05/25 02:22:38;;;;;;;12.70;6.22;;;10.10;99.90;;;;;;2102568;28;20567;-71
2023/05/25 02:23:39;;;;;;;11.75;6.85;;;10.10;99.90;;;;;;2101000;28;20051;-71
2023/05/25 02:24:40;;;;;;;9.77;6.03;;;10.10;99.90;;;;;;2102552;28;20772;-71
2023/05/25 02:25:41;;;;;;;12.95;6.15;;;10.10;99.90;;;;;;2106149;28;20032;-71
2023/05/25 02:26:41;;;;;;;10.80;5.82;;;10.10;99.90;;;;;;2103465;28;20022;-71
2023/05/25 02:27:44;;;;;;;10.65;6.50;;;10.10;99.90;;;;;;2104686;28;20032;-71
2023/05/25 02:28:44;;;;;;;9.55;5.93;;;10.10;99.90;;;;;;2099816;28;20450;-71
2023/05/25 02:29:45;;;;;;;11.15;6.13;;;10.10;99.90;;;;;;2100218;28;20089;-71
2023/05/25 02:30:46;;;;;;;9.15;7.00;;;10.10;99.90;;;;;;2103035;28;20023;-71
2023/05/25 02:31:46;;;;;;;10.50;6.55;;;10.10;99.90;;;;;;2102406;28;20139;-71
2023/05/25 02:32:47;;;;;;;12.25;7.57;;;10.10;99.90;;;;;;2104200;28;20108;-71
2023/05/25 02:33:48;;;;;;;10.35;6.72;;;10.10;99.90;;;;;;2102856;28;20115;-71
2023/05/25 02:34:48;;;;;;;11.43;6.15;;;10.00;99.90;;;;;;2103518;28;20012;-71
2023/05/25 02:35:49;;;;;;;12.77;7.40;;;10.00;99.90;;;;;;2102254;28;20088;-71
2023/05/25 02:36:50;;;;;;;10.90;6.60;;;10.00;99.90;;;;;;2106460;28;20146;-71
2023/05/25 02:37:50;;;;;;;9.32;5.75;;;10.00;99.90;;;;;;2103761;28;20017;-71
2023/05/25 02:38:51;;;;;;;9.85;6.15;;;10.00;99.90;;;;;;2104586;28;20111;-71
2023/05/25 02:39:51;;;;;;;11.35;6.57;;;10.00;99.90;;;;;;2104384;28;20065;-71
2023/05/25 02:40:52;;;;;;;9.73;6.47;;;10.00;99.90;;;;;;2105653;28;20460;-71
2023/05/25 02:41:53;;;;;;;10.48;6.00;;;10.00;99.90;;;;;;2105067;28;20039;-71
2023/05/25 02:42:53;;;;;;;8.63;5.88;;;10.00;99.90;;;;;;2105627;28;21268;-71
2023/05/25 02:43:54;;;;;;;10.52;6.88;;;10.00;99.90;;;;;;2104379;28;20015;-71
2023/05/25 02:44:54;;;;;;;11.55;6.43;;;10.00;99.90;;;;;;2105902;28;20062;-71
2023/05/25 02:45:55;;;;;;;7.90;5.63;;;10.00;99.90;;;;;;2104847;28;20039;-71
2023/05/25 02:46:55;;;;;;;10.65;6.82;;;10.00;99.90;;;;;;2105571;28;20032;-71
2023/05/25 02:47:56;;;;;;;10.38;6.57;;;10.00;99.90;;;;;;2105594;28;20395;-71
2023/05/25 02:48:58;;;;;;;10.25;6.07;;;10.00;99.90;;;;;;2103509;28;20039;-71
2023/05/25 02:49:58;;;;;;;10.55;6.90;;;9.90;99.90;;;;;;2106196;28;20024;-71
2023/05/25 02:50:59;;;;;;;8.25;5.78;;;10.00;99.90;;;;;;2103889;28;20012;-71
2023/05/25 02:51:59;;;;;;;8.43;6.05;;;10.00;99.90;;;;;;2104833;28;20472;-71
2023/05/25 02:53:00;;;;;;;8.70;5.63;;;9.90;99.90;;;;;;2104967;28;20039;-71
2023/05/25 02:54:00;;;;;;;9.15;6.22;;;9.90;99.90;;;;;;2106222;28;20024;-71
2023/05/25 02:55:02;;;;;;;8.88;5.72;;;9.90;99.90;;;;;;2107663;28;20123;-71
2023/05/25 02:56:04;;;;;;;11.35;7.07;;;9.90;99.90;;;;;;2104887;28;20020;-71
2023/05/25 02:57:05;;;;;;;8.00;5.28;;;9.90;99.90;;;;;;2103004;28;20083;-71
2023/05/25 02:58:06;;;;;;;10.43;6.75;;;9.90;99.90;;;;;;2103894;28;20024;-71
2023/05/25 02:59:06;;;;;;;10.05;5.90;;;9.90;99.90;;;;;;2104997;28;20515;-71
2023/05/25 03:00:07;;;;;;;9.88;6.43;;;9.90;99.90;;;;;;2102935;28;20035;-71
2023/05/25 03:01:09;;;;;;;9.60;6.18;;;9.90;99.90;;;;;;2106628;28;20031;-71
2023/05/25 03:02:10;;;;;;;10.95;6.70;;;9.90;99.90;;;;;;2105878;28;20027;-71
2023/05/25 03:03:11;;;;;;;8.30;6.72;;;9.90;99.90;;;;;;2103328;28;20035;-71
2023/05/25 03:04:11;;;;;;;9.02;6.65;;;9.80;99.90;;;;;;2106791;28;20123;-71
2023/05/25 03:05:12;;;;;;;9.68;7.15;;;9.90;99.90;;;;;;2102694;28;20032;-71
2023/05/25 03:06:13;;;;;;;11.82;7.43;;;9.90;99.90;;;;;;2105272;28;20490;-71
2023/05/25 03:07:14;;;;;;;11.23;7.07;;;9.80;99.90;;;;;;2104856;28;20035;-71
2023/05/25 03:08:15;;;;;;;7.55;6.25;;;9.80;99.90;;;;;;2103787;27;20766;-71
2023/05/25 03:09:15;;;;;;;9.75;6.70;;;9.80;99.90;;;;;;2104456;28;20496;-71
2023/05/25 03:10:16;;;;;;;10.32;6.57;;;9.80;99.90;;;;;;2104115;28;20021;-71
2023/05/25 03:11:17;;;;;;;11.93;7.20;;;9.80;99.90;;;;;;2103715;28;20039;-71
2023/05/25 03:12:17;;;;;;;9.32;6.78;;;9.80;99.90;;;;;;2104397;28;20020;-71
2023/05/25 03:13:18;;;;;;;10.20;6.18;;;9.80;99.90;;;;;;2105967;28;20674;-71
2023/05/25 03:14:18;;;;;;;8.65;6.63;;;9.80;99.90;;;;;;2104836;28;20510;-71
2023/05/25 03:15:19;;;;;;;7.97;5.65;;;9.80;99.90;;;;;;2105313;28;20848;-71
2023/05/25 03:16:21;;;;;;;8.80;6.68;;;9.80;99.90;;;;;;2105427;28;20107;-71
2023/05/25 03:17:22;;;;;;;13.35;6.45;;;9.80;99.90;;;;;;2102817;28;20050;-71
2023/05/25 03:18:22;;;;;;;8.63;5.32;;;9.80;99.90;;;;;;2103300;28;20028;-71
2023/05/25 03:19:23;;;;;;;8.70;5.97;;;9.80;99.90;;;;;;2110412;27;20563;-71
2023/05/25 03:20:25;;;;;;;13.27;7.18;;;9.80;99.90;;;;;;2111147;27;20085;-71
2023/05/25 03:21:26;;;;;;;12.30;7.18;;;9.80;99.90;;;;;;2105824;28;20024;-71
2023/05/25 03:22:27;;;;;;;11.75;7.10;;;9.80;99.90;;;;;;2103872;28;20020;-71
2023/05/25 03:23:27;;;;;;;10.73;6.60;;;9.70;99.90;;;;;;2103744;28;20020;-71
2023/05/25 03:24:28;;;;;;;11.10;7.20;;;9.80;99.90;;;;;;2106568;28;20031;-71
2023/05/25 03:25:28;;;;;;;9.48;5.97;;;9.70;99.90;;;;;;2103889;28;20773;-71
2023/05/25 03:26:31;;;;;;;9.27;5.78;;;9.70;99.90;;;;;;2105859;28;20028;-71
2023/05/25 03:27:31;;;;;;;11.20;5.75;;;9.70;99.90;;;;;;2104374;28;20024;-71
2023/05/25 03:28:32;;;;;;;9.57;5.10;;;9.70;99.90;;;;;;2103481;28;20031;-71
2023/05/25 03:29:32;;;;;;;8.27;5.50;;;9.70;99.90;;;;;;2106068;28;20647;-71
2023/05/25 03:30:33;;;;;;;8.93;6.25;;;9.70;99.90;;;;;;2105398;28;20051;-71
2023/05/25 03:31:34;;;;;;;8.82;5.78;;;9.70;99.90;;;;;;2105553;28;20024;-71
2023/05/25 03:32:35;;;;;;;11.05;6.22;;;9.70;99.90;;;;;;2105277;28;20043;-71
2023/05/25 03:33:35;;;;;;;9.73;6.28;;;9.70;99.90;;;;;;2103210;28;20503;-71
2023/05/25 03:34:36;;;;;;;11.85;7.03;;;9.70;99.90;;;;;;2103638;28;20494;-71
2023/05/25 03:35:36;;;;;;;7.72;6.65;;;9.70;99.90;;;;;;2103184;28;20024;-71
2023/05/25 03:36:37;;;;;;;8.82;6.38;;;9.70;99.90;;;;;;2103789;28;20036;-71
2023/05/25 03:37:38;;;;;;;9.27;5.95;;;9.70;99.90;;;;;;2106584;28;20443;-71
2023/05/25 03:38:38;;;;;;;9.90;5.60;;;9.70;99.90;;;;;;2106311;28;20020;-70
2023/05/25 03:39:39;;;;;;;12.98;6.50;;;9.70;99.90;;;;;;2104586;28;20583;-70
2023/05/25 03:40:40;;;;;;;9.70;6.15;;;9.70;99.90;;;;;;2104306;28;20592;-71
2023/05/25 03:41:41;;;;;;;9.30;5.78;;;9.70;99.90;;;;;;2103126;28;20491;-71
2023/05/25 03:42:42;;;;;;;8.95;6.22;;;9.70;99.90;;;;;;2104670;28;20019;-71
2023/05/25 03:43:43;;;;;;;8.88;5.70;;;9.70;99.90;;;;;;2103992;28;20020;-71
2023/05/25 03:44:43;;;;;;;7.97;5.85;;;9.70;99.90;;;;;;2104608;28;20067;-71
2023/05/25 03:45:44;;;;;;;8.45;6.07;;;9.70;99.90;;;;;;2104339;28;20446;-71
2023/05/25 03:46:44;;;;;;;8.65;6.47;;;9.70;99.90;;;;;;2103598;28;20062;-71
2023/05/25 03:47:45;;;;;;;7.80;5.72;;;9.70;99.90;;;;;;2102541;28;20473;-71
2023/05/25 03:48:45;;;;;;;9.32;6.28;;;9.70;99.90;;;;;;2103700;28;20024;-71
2023/05/25 03:49:46;;;;;;;11.13;6.47;;;9.70;99.90;;;;;;2103320;28;20046;-71
2023/05/25 03:50:46;;;;;;;11.02;7.03;;;9.70;99.90;;;;;;2104735;28;20043;-71
2023/05/25 03:51:47;;;;;;;8.40;7.32;;;9.70;99.90;;;;;;2102990;28;20495;-71
2023/05/25 03:52:47;;;;;;;10.23;6.72;;;9.70;99.90;;;;;;2105282;28;20125;-72
2023/05/25 03:53:48;;;;;;;10.38;7.38;;;9.70;99.90;;;;;;2101482;28;20016;-71
2023/05/25 03:54:49;;;;;;;10.45;7.07;;;9.70;99.90;;;;;;2101706;28;20024;-71
2023/05/25 03:55:50;;;;;;;9.50;6.25;;;9.70;99.90;;;;;;2103968;28;20020;-71
2023/05/25 03:56:51;;;;;;;11.77;6.97;;;9.70;99.90;;;;;;2105729;28;20109;-71
2023/05/25 03:57:52;;;;;;;12.18;6.65;;;9.70;99.90;;;;;;2104015;28;20125;-71
2023/05/25 03:58:52;;;;;;;9.60;5.97;;;9.70;99.90;;;;;;2101617;28;20020;-71
2023/05/25 03:59:53;;;;;;;9.93;6.95;;;9.70;99.90;;;;;;2103630;28;20032;-71
2023/05/25 04:00:55;;;;;;;10.23;6.18;;;9.70;99.90;;;;;;2103020;28;20024;-71
2023/05/25 04:01:55;;;;;;;9.35;6.20;;;9.70;99.90;;;;;;2104586;28;20405;-71
2023/05/25 04:02:56;;;;;;;9.40;6.60;;;9.70;99.90;;;;;;2104514;28;20035;-72
2023/05/25 04:03:56;;;;;;;13.98;8.00;;;9.70;99.90;;;;;;2104911;28;20476;-71
2023/05/25 04:04:57;;;;;;;10.23;7.25;;;9.70;99.90;;;;;;2103039;28;20560;-71
2023/05/25 04:05:59;;;;;;;11.45;6.40;;;9.70;99.90;;;;;;2103175;28;20027;-72
2023/05/25 04:07:00;;;;;;;9.95;6.68;;;9.80;99.90;;;;;;2105213;28;20015;-71
2023/05/25 04:08:01;;;;;;;8.20;6.20;;;9.70;99.90;;;;;;2104966;28;20100;-71
2023/05/25 04:09:03;;;;;;;11.13;6.90;;;9.80;99.90;;;;;;2105031;28;20027;-71
2023/05/25 04:10:04;;;;;;;11.70;6.50;;;9.80;99.90;;;;;;2096165;28;20032;-71
2023/05/25 04:11:04;;;;;;;10.65;7.07;;;9.80;99.90;;;;;;2104552;28;20024;-71
2023/05/25 04:12:05;;;;;;;9.20;6.40;;;9.80;99.90;;;;;;2099873;28;20017;-71
2023/05/25 04:13:06;;;;;;;9.63;7.03;;;9.80;99.90;;;;;;2105175;28;20027;-71
2023/05/25 04:14:06;;;;;;;6.85;5.88;;;9.80;99.90;;;;;;2105984;28;20388;-71
2023/05/25 04:15:08;;;;;;;9.23;6.75;;;9.80;99.90;;;;;;2105815;28;20051;-71
2023/05/25 04:16:11;;;;;;;8.75;6.40;;;9.80;99.90;;;;;;2103161;28;20022;-71
2023/05/25 04:17:11;;;;;;;7.72;5.75;;;9.80;99.90;;;;;;2105809;28;20020;-71
2023/05/25 04:18:12;;;;;;;10.40;6.13;;;9.80;99.90;;;;;;2102854;28;20046;-71
2023/05/25 04:19:12;;;;;;;12.75;7.15;;;9.80;99.90;;;;;;2103898;28;20439;-71
2023/05/25 04:20:13;;;;;;;9.98;6.85;;;9.80;99.90;;;;;;2104011;28;20051;-71
2023/05/25 04:21:13;;;;;;;7.90;6.47;;;9.90;99.90;;;;;;2102237;28;20106;-71
2023/05/25 04:22:14;;;;;;;12.48;7.55;;;9.90;99.90;;;;;;2102923;28;20035;-71
2023/05/25 04:23:14;;;;;;;10.68;7.63;;;9.90;99.90;;;;;;2104756;28;20036;-71
2023/05/25 04:24:15;;;;;;;12.50;8.18;;;10.00;99.90;;;;;;2104498;28;20527;-72
2023/05/25 04:25:16;;;;;;;10.25;7.40;;;10.00;99.90;;;;;;2106245;28;20446;-71
2023/05/25 04:26:16;;;;;;;10.30;7.05;;;10.20;99.90;;;;;;2102015;28;20036;-71
2023/05/25 04:27:19;;;;;;;10.30;7.60;;;10.30;99.90;;;;;;2103449;28;20456;-71
2023/05/25 04:28:19;;;;;;;14.27;7.82;;;10.40;99.90;;;;;;2101568;28;20115;-71
2023/05/25 04:29:20;;;;;;;10.60;7.40;;;10.60;99.90;;;;;;2102503;28;20035;-71
2023/05/25 04:30:23;;;;;;;11.68;8.05;;;10.60;99.90;;;;;;2104027;28;20028;-71
2023/05/25 04:31:25;;;;;;;11.90;8.07;;;10.70;99.90;;;;;;2102306;28;20024;-71
2023/05/25 04:32:30;;;;;;;10.68;7.38;;;10.80;99.90;;;;;;2106764;28;20011;-71
2023/05/25 04:33:33;;;;;;;14.60;8.10;;;10.80;99.90;;;;;;2104527;28;20018;-71
2023/05/25 04:34:34;;;;;;;9.82;7.45;;;10.80;99.90;;;;;;2102480;28;20115;-71
2023/05/25 04:35:35;;;;;;;12.95;8.70;;;10.90;99.90;;;;;;2104201;28;20139;-71
2023/05/25 04:36:37;;;;;;;12.02;8.52;;;10.90;99.90;;;;;;2105226;28;20103;-71
2023/05/25 04:37:39;;;;;;;11.13;7.82;;;10.90;99.90;;;;;;2106054;28;20031;-71
2023/05/25 04:38:40;;;;;;;13.25;7.88;;;10.90;99.90;;;;;;2103784;28;20024;-71
2023/05/25 04:39:40;;;;;;;13.00;7.85;;;11.00;99.90;;;;;;2103862;28;20019;-71
2023/05/25 04:40:41;;;;;;;8.82;7.25;;;11.00;99.90;;;;;;2101701;28;20028;-71
2023/05/25 04:41:42;;;;;;;9.45;6.93;;;11.00;99.90;;;;;;2104892;28;20072;-71
2023/05/25 04:42:43;;;;;;;9.90;7.25;;;11.10;99.90;;;;;;2104172;28;20043;-71
2023/05/25 04:43:44;;;;;;;11.18;7.50;;;11.10;99.90;;;;;;2104852;28;20031;-71
2023/05/25 04:44:45;;;;;;;12.02;7.82;;;11.10;99.90;;;;;;2104084;28;20048;-71
2023/05/25 04:45:46;;;;;;;9.88;7.22;;;11.20;99.90;;;;;;2103910;28;20367;-71
2023/05/25 04:46:46;;;;;;;9.23;7.40;;;11.20;99.90;;;;;;2104321;28;20020;-71
2023/05/25 04:47:48;;;;;;;13.52;8.68;;;11.30;99.90;;;;;;2105384;28;20082;-71
2023/05/25 04:48:49;;;;;;;11.73;7.57;;;11.40;99.90;;;;;;2104092;28;20024;-71
2023/05/25 04:49:50;;;;;;;12.32;7.45;;;11.40;99.90;;;;;;2103072;28;20031;-71
2023/05/25 04:50:51;;;;;;;9.45;7.15;;;11.50;99.90;;;;;;2105384;28;20026;-71
2023/05/25 04:51:52;;;;;;;11.35;7.70;;;11.50;99.90;;;;;;2102815;28;20159;-72
2023/05/25 04:52:52;;;;;;;10.88;6.55;;;11.60;99.90;;;;;;2104716;28;20101;-71
2023/05/25 04:53:53;;;;;;;18.35;8.30;;;11.70;99.90;;;;;;2104367;28;20472;-71
2023/05/25 04:54:53;;;;;;;14.57;7.85;;;11.80;99.90;;;;;;2103779;28;20052;-71
2023/05/25 04:55:54;;;;;;;9.80;6.68;;;11.90;99.90;;;;;;2104983;28;20027;-71
2023/05/25 04:56:56;;;;;;;13.00;7.32;;;12.00;99.90;;;;;;2102821;28;20034;-71
2023/05/25 04:57:57;;;;;;;10.30;6.82;;;12.00;99.90;;;;;;2101731;28;20106;-71
2023/05/25 04:58:58;;;;;;;15.93;7.28;;;12.10;99.90;;;;;;2103680;28;20417;-71
2023/05/25 04:59:58;;;;;;;11.77;6.75;;;12.20;99.90;;;;;;2103461;28;20020;-71
2023/05/25 05:00:59;;;;;;;12.73;7.00;;;12.30;99.90;;;;;;2102543;28;20095;-71
2023/05/25 05:01:59;;;;;;;8.48;6.53;;;12.30;99.90;;;;;;2104401;28;20446;-71
2023/05/25 05:03:00;;;;;;;11.70;6.55;;;12.40;99.90;;;;;;2105445;28;20392;-71
2023/05/25 05:04:00;;;;;;;12.80;6.75;;;12.50;99.90;;;;;;2104768;28;20098;-72
2023/05/25 05:05:01;;;;;;;11.35;7.45;;;12.60;99.90;;;;;;2104103;28;20081;-72
2023/05/25 05:06:02;;;;;;;14.98;7.60;;;12.70;99.90;;;;;;2103875;28;20066;-72
2023/05/25 05:07:02;;;;;;;9.10;6.55;;;12.70;99.90;;;;;;2102293;28;20028;-72
2023/05/25 05:08:03;;;;;;;19.90;7.30;;;12.80;99.90;;;;;;2095589;28;20077;-72
2023/05/25 05:09:04;;;;;;;12.10;6.40;;;12.90;99.90;;;;;;2101224;28;20114;-72
2023/05/25 05:10:05;;;;;;;10.75;6.30;;;12.90;99.90;;;;;;2100857;28;20027;-71
2023/05/25 05:11:05;;;;;;;12.35;6.45;;;13.00;99.90;;;;;;2104481;28;20638;-71
2023/05/25 05:12:07;;;;;;;11.05;6.88;;;13.10;99.90;;;;;;2106276;28;20094;-72
2023/05/25 05:13:07;;;;;;;11.75;7.25;;;13.10;99.90;;;;;;2102192;28;20028;-72
2023/05/25 05:14:08;;;;;;;16.23;7.13;;;13.20;99.90;;;;;;2103166;28;20112;-72
2023/05/25 05:15:08;;;;;;;13.30;6.65;;;13.20;99.90;;;;;;2103431;28;20025;-72
2023/05/25 05:16:09;;;;;;;9.57;6.50;;;13.30;99.90;;;;;;2105938;27;20031;-72
2023/05/25 05:17:10;;;;;;;13.68;7.07;;;13.30;99.90;;;;;;2105535;28;20869;-72
2023/05/25 05:18:12;;;;;;;12.68;7.43;;;13.30;99.90;;;;;;2106098;28;20020;-72
2023/05/25 05:19:13;;;;;;;22.73;7.70;;;13.40;99.90;;;;;;2101523;28;20027;-72
2023/05/25 05:20:13;;;;;;;13.57;7.10;;;13.40;99.90;;;;;;2102453;28;20107;-72
2023/05/25 05:21:14;;;;;;;16.33;6.43;;;13.50;99.90;;;;;;2104469;28;20416;-72